Time;durP1;ratioP1;P1;durP2;ratioP2;P2;SDS_P1;SDS_P2;PMS_P1;PMS_P2;Temp;Humidity;BMP_temperature;BMP_pressure;BME280_temperature;BME280_humidity;BME280_pressure;Samples;Min_cycle;Max_cycle;Signal;HPM_P1;HPM_P2
2023/08/10 00:01:12;;;;;;;3.03;1.52;;;;;;;13.06;100.00;101288.94;6099680;28;20419;-66
2023/08/10 00:04:07;;;;;;;3.07;1.30;;;;;;;13.02;100.00;101296.38;6100724;28;20025;-66
2023/08/10 00:07:02;;;;;;;5.60;1.50;;;;;;;13.03;100.00;101297.22;6101062;28;20259;-65
2023/08/10 00:09:58;;;;;;;4.13;1.35;;;;;;;13.25;100.00;101309.34;6100932;28;20021;-65
2023/08/10 00:12:53;;;;;;;4.13;1.50;;;;;;;13.60;100.00;101309.41;6102099;28;20037;-66
2023/08/10 00:15:48;;;;;;;3.72;1.45;;;;;;;13.67;100.00;101295.31;6100401;28;20032;-66
2023/08/10 00:18:44;;;;;;;5.87;1.97;;;;;;;13.31;100.00;101322.06;6100676;28;20041;-65
2023/08/10 00:21:39;;;;;;;5.50;1.45;;;;;;;13.05;100.00;101308.56;6100841;28;20044;-65
2023/08/10 00:24:34;;;;;;;4.93;1.63;;;;;;;13.10;100.00;101317.81;6099928;28;20029;-65
2023/08/10 00:27:30;;;;;;;4.30;1.40;;;;;;;12.98;100.00;101315.47;6099936;28;20037;-66
2023/08/10 00:30:25;;;;;;;5.93;1.50;;;;;;;12.80;100.00;101314.56;6100515;28;20036;-65
2023/08/10 00:33:20;;;;;;;2.60;1.33;;;;;;;12.86;100.00;101293.50;6100063;28;20029;-66
2023/08/10 00:36:16;;;;;;;5.90;1.40;;;;;;;12.83;100.00;101301.78;6100406;28;20593;-66
2023/08/10 00:39:11;;;;;;;5.23;1.60;;;;;;;12.99;100.00;101306.50;6100195;28;20372;-65
2023/08/10 00:42:06;;;;;;;3.90;1.57;;;;;;;13.06;100.00;101295.09;6100559;28;20037;-66
2023/08/10 00:45:02;;;;;;;6.47;1.60;;;;;;;12.82;100.00;101292.13;6092633;28;20029;-65
2023/08/10 00:47:57;;;;;;;3.55;1.58;;;;;;;13.00;100.00;101306.34;6100134;28;20086;-65
2023/08/10 00:50:53;;;;;;;7.00;1.60;;;;;;;12.51;100.00;101301.31;6100125;28;20400;-65
2023/08/10 00:53:49;;;;;;;4.55;1.55;;;;;;;12.27;100.00;101315.09;6099335;28;20116;-65
2023/08/10 00:56:44;;;;;;;4.72;1.50;;;;;;;12.00;100.00;101304.34;6100214;28;20031;-65
2023/08/10 00:59:40;;;;;;;3.22;1.27;;;;;;;11.88;100.00;101308.97;6099747;28;20021;-65
2023/08/10 01:02:37;;;;;;;2.55;1.45;;;;;;;11.78;100.00;101313.44;6101072;28;20480;-65
2023/08/10 01:05:34;;;;;;;5.22;1.58;;;;;;;11.93;100.00;101305.88;6099036;28;20029;-65
2023/08/10 01:08:41;;;;;;;6.22;1.90;;;;;;;11.99;100.00;101318.59;6098641;28;20028;-65
2023/08/10 01:11:44;;;;;;;4.03;1.75;;;;;;;12.41;100.00;101319.13;6097707;28;20025;-65
2023/08/10 01:14:49;;;;;;;8.35;1.67;;;;;;;12.17;100.00;101318.75;6097722;28;20033;-65
2023/08/10 01:17:51;;;;;;;5.72;1.45;;;;;;;12.58;100.00;101322.88;6099542;28;20029;-65
2023/08/10 01:20:47;;;;;;;3.35;1.40;;;;;;;12.40;100.00;101325.44;6099626;28;20040;-65
2023/08/10 01:23:46;;;;;;;5.90;1.65;;;;;;;12.23;100.00;101315.53;6097666;28;20024;-65
2023/08/10 01:26:42;;;;;;;5.38;1.38;;;;;;;12.23;100.00;101334.16;6097958;28;20032;-65
2023/08/10 01:29:37;;;;;;;3.47;1.42;;;;;;;12.15;100.00;101321.53;6099417;28;20075;-65
2023/08/10 01:32:33;;;;;;;2.95;1.42;;;;;;;12.09;100.00;101337.22;6099301;28;20353;-65
2023/08/10 01:35:28;;;;;;;5.33;1.53;;;;;;;12.13;100.00;101336.81;6099652;28;20136;-65
2023/08/10 01:38:24;;;;;;;2.78;1.33;;;;;;;12.20;100.00;101331.78;6098955;28;20278;-65
2023/08/10 01:41:19;;;;;;;5.67;2.00;;;;;;;12.92;100.00;101332.00;6098845;28;20032;-66
2023/08/10 01:44:14;;;;;;;3.57;1.30;;;;;;;12.30;100.00;101337.91;6098086;28;20687;-65
2023/08/10 01:47:18;;;;;;;4.23;1.60;;;;;;;12.06;100.00;101342.81;6098871;28;20040;-65
2023/08/10 01:50:15;;;;;;;3.05;1.58;;;;;;;12.60;100.00;101332.41;6099316;28;20029;-65
2023/08/10 01:53:18;;;;;;;4.32;1.52;;;;;;;12.12;100.00;101324.47;6097758;28;20556;-65
2023/08/10 01:56:14;;;;;;;3.47;1.42;;;;;;;12.03;100.00;101343.09;6103401;28;20040;-65
2023/08/10 01:59:09;;;;;;;3.97;1.35;;;;;;;11.98;100.00;101326.75;6097251;28;20056;-66
2023/08/10 02:02:05;;;;;;;3.50;1.55;;;;;;;12.01;100.00;101347.72;6080510;28;20479;-65
2023/08/10 02:05:00;;;;;;;4.90;1.70;;;;;;;11.85;100.00;101330.50;6097849;28;20138;-65
2023/08/10 02:07:55;;;;;;;5.10;1.90;;;;;;;12.01;100.00;101339.75;6098422;28;20082;-65
2023/08/10 02:10:51;;;;;;;5.33;1.60;;;;;;;11.87;100.00;101336.53;6098529;28;20029;-65
2023/08/10 02:13:46;;;;;;;7.27;2.30;;;;;;;11.89;100.00;101342.53;6097714;28;20366;-65
2023/08/10 02:16:41;;;;;;;4.83;2.00;;;;;;;11.72;100.00;101337.91;6098061;28;20303;-66
2023/08/10 02:19:36;;;;;;;5.17;1.80;;;;;;;11.67;100.00;101336.59;6097829;28;20150;-65
2023/08/10 02:22:32;;;;;;;3.33;1.57;;;;;;;11.54;100.00;101347.50;6098294;28;20033;-65
2023/08/10 02:25:27;;;;;;;4.10;1.80;;;;;;;11.50;100.00;101358.50;6097235;28;20025;-65
2023/08/10 02:28:22;;;;;;;6.33;2.00;;;;;;;11.31;100.00;101348.69;6098051;28;20322;-65
2023/08/10 02:31:18;;;;;;;5.03;2.27;;;;;;;11.34;100.00;101349.25;6097799;28;20025;-65
2023/08/10 02:34:14;;;;;;;5.00;2.00;;;;;;;11.28;100.00;101359.56;6097483;28;20036;-66
2023/08/10 02:37:10;;;;;;;5.63;2.60;;;;;;;11.17;100.00;101355.19;6097718;28;20266;-65
2023/08/10 02:40:11;;;;;;;6.53;2.17;;;;;;;11.21;100.00;101361.94;6105832;28;20364;-65
2023/08/10 02:43:06;;;;;;;4.97;2.20;;;;;;;11.29;100.00;101353.28;6097807;28;20312;-65
2023/08/10 02:46:02;;;;;;;6.07;2.57;;;;;;;11.53;100.00;101326.38;6095207;28;20028;-65
2023/08/10 02:48:58;;;;;;;7.82;2.65;;;;;;;12.01;100.00;101356.53;6097767;28;20024;-65
2023/08/10 02:51:54;;;;;;;11.73;2.65;;;;;;;11.96;100.00;101357.94;6097544;28;20028;-65
2023/08/10 02:54:49;;;;;;;4.47;2.10;;;;;;;11.97;100.00;101351.63;6096968;28;20460;-65
2023/08/10 02:57:44;;;;;;;6.47;2.10;;;;;;;11.96;100.00;101342.81;6102532;28;20376;-65
2023/08/10 03:00:41;;;;;;;7.07;2.17;;;;;;;11.84;100.00;101349.25;6097223;28;20028;-65
2023/08/10 03:03:36;;;;;;;4.88;2.08;;;;;;;11.42;100.00;101345.91;6096913;28;20056;-65
2023/08/10 03:06:32;;;;;;;6.83;1.87;;;;;;;11.50;100.00;101371.78;6097439;28;20031;-65
2023/08/10 03:09:28;;;;;;;3.63;1.83;;;;;;;11.11;100.00;101370.84;6097514;28;20392;-65
2023/08/10 03:12:23;;;;;;;5.57;1.75;;;;;;;10.95;100.00;101359.88;6098621;28;20037;-65
2023/08/10 03:15:19;;;;;;;4.28;1.63;;;;;;;10.99;100.00;101379.84;6096403;28;20090;-65
2023/08/10 03:18:14;;;;;;;5.95;2.00;;;;;;;10.84;100.00;101368.75;6097298;28;20100;-65
2023/08/10 03:21:10;;;;;;;4.13;1.87;;;;;;;10.95;100.00;101368.66;6097144;28;20033;-65
2023/08/10 03:24:05;;;;;;;2.97;1.70;;;;;;;10.82;100.00;101380.47;6096690;28;20029;-65
2023/08/10 03:27:00;;;;;;;3.65;1.52;;;;;;;10.68;100.00;101384.31;6097236;28;20029;-65
2023/08/10 03:29:56;;;;;;;3.70;2.00;;;;;;;10.67;100.00;101380.81;6096484;28;20029;-65
2023/08/10 03:32:51;;;;;;;6.20;2.20;;;;;;;10.76;100.00;101384.50;6097299;28;20120;-65
2023/08/10 03:35:46;;;;;;;9.27;3.40;;;;;;;10.58;100.00;101372.78;6099054;28;20356;-65
2023/08/10 03:38:42;;;;;;;6.40;2.57;;;;;;;11.00;100.00;101376.22;6101929;28;20090;-65
2023/08/10 03:41:37;;;;;;;6.13;2.80;;;;;;;10.86;100.00;101368.63;6101856;28;20298;-65
2023/08/10 03:44:32;;;;;;;6.90;2.90;;;;;;;10.69;100.00;101370.91;6096987;28;20068;-65
2023/08/10 03:47:28;;;;;;;7.67;2.73;;;;;;;10.54;100.00;101372.22;6108287;28;20029;-65
2023/08/10 03:50:24;;;;;;;9.70;3.10;;;;;;;10.57;100.00;101393.13;6101440;28;20364;-65
2023/08/10 03:53:20;;;;;;;11.00;3.03;;;;;;;10.56;100.00;101395.94;6108148;28;20475;-65
2023/08/10 03:56:15;;;;;;;7.72;3.40;;;;;;;10.84;100.00;101384.69;6101190;28;20037;-65
2023/08/10 03:59:11;;;;;;;9.67;3.17;;;;;;;11.26;100.00;101396.03;6101545;28;20064;-65
2023/08/10 04:02:07;;;;;;;7.97;3.28;;;;;;;11.49;100.00;101386.91;6101316;28;20032;-65
2023/08/10 04:05:06;;;;;;;9.43;3.25;;;;;;;11.12;100.00;101396.38;6100468;28;20431;-64
2023/08/10 04:08:01;;;;;;;8.88;3.25;;;;;;;10.92;100.00;101376.06;6111523;28;20036;-64
2023/08/10 04:10:56;;;;;;;8.80;3.45;;;;;;;10.98;100.00;101380.84;6101015;28;20032;-64
2023/08/10 04:13:52;;;;;;;9.13;3.37;;;;;;;10.75;100.00;101386.28;6100701;28;20059;-64
2023/08/10 04:16:47;;;;;;;10.67;3.93;;;;;;;10.73;100.00;101380.25;6101050;28;20066;-64
2023/08/10 04:19:42;;;;;;;7.45;3.03;;;;;;;10.82;100.00;101409.66;6100885;28;20358;-64
2023/08/10 04:22:38;;;;;;;8.03;3.20;;;;;;;10.94;100.00;101390.88;6102257;28;20067;-64
2023/08/10 04:25:33;;;;;;;8.43;3.33;;;;;;;10.86;100.00;101398.63;6100007;28;20035;-64
2023/08/10 04:28:30;;;;;;;10.73;3.40;;;;;;;10.88;100.00;101409.13;6101058;28;20031;-64
2023/08/10 04:31:25;;;;;;;8.15;3.20;;;;;;;10.89;100.00;101405.50;6102186;28;20065;-64
2023/08/10 04:34:21;;;;;;;11.30;3.03;;;;;;;11.18;100.00;101403.81;6101466;28;20025;-65
2023/08/10 04:37:16;;;;;;;6.97;3.23;;;;;;;11.98;100.00;101403.81;6100831;28;20029;-65
2023/08/10 04:40:11;;;;;;;9.17;2.77;;;;;;;12.13;100.00;101415.72;6100444;28;20037;-66
2023/08/10 04:43:07;;;;;;;6.50;3.08;;;;;;;12.33;100.00;101402.31;6100584;28;20807;-66
2023/08/10 04:46:02;;;;;;;5.27;2.40;;;;;;;12.33;100.00;101393.47;6098578;28;20067;-65
2023/08/10 04:48:57;;;;;;;6.23;2.67;;;;;;;12.78;100.00;101402.53;6100001;28;20029;-65
2023/08/10 04:51:53;;;;;;;4.10;2.20;;;;;;;13.39;100.00;101413.59;6100537;28;20380;-66
2023/08/10 04:54:48;;;;;;;8.32;2.40;;;;;;;14.25;100.00;101398.84;6099436;28;20021;-66
2023/08/10 04:57:44;;;;;;;3.87;1.83;;;;;;;14.53;100.00;101407.66;6108991;28;20102;-66
2023/08/10 05:00:39;;;;;;;4.57;2.00;;;;;;;14.50;100.00;101423.97;6099879;28;20487;-66
2023/08/10 05:03:35;;;;;;;10.03;2.10;;;;;;;14.46;100.00;101409.25;6099272;28;20471;-66
2023/08/10 05:06:30;;;;;;;5.20;2.05;;;;;;;14.29;100.00;101411.72;6100078;28;20529;-66
2023/08/10 05:09:26;;;;;;;7.77;2.00;;;;;;;14.06;100.00;101418.53;6099673;28;20029;-66
2023/08/10 05:12:21;;;;;;;6.93;2.35;;;;;;;13.89;100.00;101416.66;6109888;28;20271;-66
2023/08/10 05:15:16;;;;;;;6.80;2.60;;;;;;;13.50;100.00;101417.88;6099111;28;20037;-66
2023/08/10 05:18:12;;;;;;;8.13;2.10;;;;;;;13.25;100.00;101434.53;6099439;28;20271;-66
2023/08/10 05:21:08;;;;;;;5.95;2.65;;;;;;;13.06;100.00;101420.25;6099838;28;20033;-65
2023/08/10 05:24:03;;;;;;;7.33;2.00;;;;;;;13.49;100.00;101442.84;6093259;28;20044;-66
2023/08/10 05:27:00;;;;;;;5.97;1.83;;;;;;;13.92;100.00;101429.69;6103169;28;20103;-66
2023/08/10 05:29:56;;;;;;;8.05;2.00;;;;;;;13.74;100.00;101447.50;6106103;28;20025;-66
2023/08/10 05:32:51;;;;;;;11.50;3.27;;;;;;;13.51;100.00;101440.84;6099132;28;20036;-66
2023/08/10 05:35:46;;;;;;;6.87;3.13;;;;;;;13.61;100.00;101450.50;6098778;28;20056;-65
2023/08/10 05:38:42;;;;;;;8.40;3.20;;;;;;;13.91;100.00;101449.38;6098934;28;20452;-65
2023/08/10 05:41:37;;;;;;;12.63;3.57;;;;;;;13.88;100.00;101447.00;6099444;28;20087;-66
2023/08/10 05:44:32;;;;;;;5.13;2.90;;;;;;;13.98;100.00;101439.78;6098324;28;20098;-66
2023/08/10 05:47:28;;;;;;;11.00;2.70;;;;;;;14.80;100.00;101431.56;6098820;28;20043;-65
2023/08/10 05:50:23;;;;;;;5.33;2.07;;;;;;;15.28;100.00;101426.50;6099104;28;20051;-66
2023/08/10 05:53:18;;;;;;;7.70;2.67;;;;;;;15.38;100.00;101445.13;6099300;28;20025;-66
2023/08/10 05:56:14;;;;;;;3.53;1.83;;;;;;;16.22;98.95;101448.63;6098722;28;20115;-66
2023/08/10 05:59:10;;;;;;;5.53;2.25;;;;;;;16.30;92.44;101440.63;6098229;28;20024;-65
2023/08/10 06:02:06;;;;;;;6.53;2.17;;;;;;;15.78;95.61;101444.50;6098696;28;20024;-66
2023/08/10 06:05:01;;;;;;;8.68;2.33;;;;;;;15.68;98.69;101441.13;6109094;28;20028;-65
2023/08/10 06:07:57;;;;;;;4.63;2.57;;;;;;;15.60;98.78;101446.44;6098546;28;20384;-66
2023/08/10 06:10:52;;;;;;;7.13;2.53;;;;;;;15.82;98.39;101448.50;6098535;28;20013;-66
2023/08/10 06:13:48;;;;;;;5.53;2.57;;;;;;;16.48;95.54;101457.34;6097770;28;20028;-66
2023/08/10 06:16:44;;;;;;;8.30;2.83;;;;;;;16.45;93.53;101462.19;6098200;28;20435;-66
2023/08/10 06:19:39;;;;;;;8.93;2.30;;;;;;;16.48;94.32;101443.97;6098735;28;20063;-66
2023/08/10 06:22:34;;;;;;;9.10;2.10;;;;;;;16.96;91.30;101442.34;6097994;28;20052;-65
2023/08/10 06:25:30;;;;;;;8.03;2.40;;;;;;;16.99;89.15;101456.22;6097670;28;20483;-66
2023/08/10 06:28:26;;;;;;;9.63;2.15;;;;;;;17.56;87.08;101456.09;6097894;28;20048;-66
2023/08/10 06:31:21;;;;;;;8.00;2.53;;;;;;;17.16;84.56;101444.47;6098041;28;20021;-65
2023/08/10 06:34:16;;;;;;;7.20;2.07;;;;;;;17.43;83.73;101451.25;6097608;28;20279;-65
2023/08/10 06:37:14;;;;;;;8.53;1.60;;;;;;;17.31;83.97;101458.00;6097877;28;20116;-66
2023/08/10 06:40:11;;;;;;;5.53;1.90;;;;;;;17.37;83.49;101441.22;6097972;28;20017;-66
2023/08/10 06:43:06;;;;;;;6.50;1.80;;;;;;;17.12;82.59;101447.66;6097668;28;20025;-65
2023/08/10 06:46:02;;;;;;;5.57;1.80;;;;;;;16.88;85.20;101461.06;6097409;28;20502;-66
2023/08/10 06:48:57;;;;;;;6.90;1.70;;;;;;;17.28;82.28;101466.41;6097055;28;20036;-66
2023/08/10 06:51:53;;;;;;;4.03;1.25;;;;;;;17.47;82.15;101454.44;6097615;28;20025;-66
2023/08/10 06:54:48;;;;;;;4.80;1.60;;;;;;;17.95;80.10;101448.06;6097205;28;20368;-66
2023/08/10 06:57:44;;;;;;;5.10;1.30;;;;;;;18.94;74.62;101460.44;6097380;28;20025;-66
2023/08/10 07:00:39;;;;;;;3.65;1.60;;;;;;;18.98;71.23;101467.16;6097575;28;20349;-65
2023/08/10 07:03:35;;;;;;;7.83;1.33;;;;;;;18.88;72.86;101477.31;6097192;28;20032;-66
2023/08/10 07:06:31;;;;;;;5.93;1.70;;;;;;;18.98;71.19;101483.28;6097726;28;20037;-65
2023/08/10 07:09:26;;;;;;;5.22;1.55;;;;;;;18.66;70.73;101480.88;6105646;28;20369;-65
2023/08/10 07:12:22;;;;;;;3.10;1.13;;;;;;;18.27;72.25;101488.13;6102796;28;20029;-65
2023/08/10 07:15:17;;;;;;;5.97;1.40;;;;;;;18.71;70.07;101480.31;6105175;28;20455;-65
2023/08/10 07:18:14;;;;;;;5.20;1.38;;;;;;;19.20;66.53;101469.97;6111125;28;20031;-66
2023/08/10 07:21:10;;;;;;;2.03;0.93;;;;;;;19.62;64.69;101475.59;6102626;28;20048;-66
2023/08/10 07:24:06;;;;;;;6.40;1.30;;;;;;;19.13;63.96;101471.72;6093655;28;20033;-65
2023/08/10 07:27:01;;;;;;;5.93;1.70;;;;;;;19.02;67.62;101479.19;6099061;28;20039;-65
2023/08/10 07:29:56;;;;;;;4.27;1.50;;;;;;;19.42;66.11;101463.72;6102456;28;20517;-66
2023/08/10 07:32:52;;;;;;;5.50;1.90;;;;;;;19.45;64.84;101474.09;6102026;28;20468;-65
2023/08/10 07:35:47;;;;;;;3.87;1.30;;;;;;;19.51;63.07;101462.59;6101666;28;20090;-66
2023/08/10 07:38:42;;;;;;;4.40;1.15;;;;;;;20.69;58.23;101474.78;6101951;28;20017;-66
2023/08/10 07:41:38;;;;;;;6.10;1.60;;;;;;;20.22;61.84;101475.28;6101770;28;20051;-66
2023/08/10 07:44:33;;;;;;;3.77;1.07;;;;;;;20.25;62.88;101483.03;6105391;28;20075;-66
2023/08/10 07:47:30;;;;;;;3.22;1.20;;;;;;;20.30;61.65;101466.31;6101785;28;20109;-66
2023/08/10 07:50:27;;;;;;;3.67;1.17;;;;;;;20.23;62.40;101474.28;6101612;28;20029;-66
2023/08/10 07:53:23;;;;;;;6.95;1.30;;;;;;;20.38;59.97;101482.34;6100959;28;20033;-66
2023/08/10 07:56:19;;;;;;;5.47;1.20;;;;;;;20.05;59.51;101488.19;6101348;28;20413;-66
2023/08/10 07:59:16;;;;;;;7.28;1.40;;;;;;;20.40;57.92;101469.53;6101776;28;20079;-66
2023/08/10 08:02:11;;;;;;;9.77;1.40;;;;;;;19.84;61.55;101482.69;6100999;28;20114;-65
2023/08/10 08:05:07;;;;;;;3.87;1.03;;;;;;;20.07;60.57;101469.97;6100972;28;20384;-66
2023/08/10 08:08:05;;;;;;;5.85;1.10;;;;;;;20.29;59.46;101470.03;6101516;28;20025;-66
2023/08/10 08:11:00;;;;;;;4.68;1.42;;;;;;;20.81;57.94;101465.16;6100995;28;20070;-66
2023/08/10 08:13:55;;;;;;;5.57;1.25;;;;;;;20.26;60.24;101486.56;6111310;28;20025;-66
2023/08/10 08:16:51;;;;;;;4.47;1.10;;;;;;;20.07;61.54;101479.91;6100984;28;20098;-66
2023/08/10 08:19:46;;;;;;;3.93;1.20;;;;;;;19.73;61.12;101482.38;6100953;28;20538;-66
2023/08/10 08:22:41;;;;;;;6.07;1.15;;;;;;;19.43;61.92;101484.22;6100697;28;20334;-66
2023/08/10 08:25:37;;;;;;;5.43;1.30;;;;;;;18.90;64.79;101472.59;6097616;28;20624;-66
2023/08/10 08:28:32;;;;;;;5.05;1.40;;;;;;;18.57;66.29;101471.19;6100840;28;20100;-66
2023/08/10 08:31:28;;;;;;;4.23;1.40;;;;;;;18.75;66.75;101479.78;6100645;28;20048;-66
2023/08/10 08:34:23;;;;;;;4.73;1.10;;;;;;;18.42;67.69;101478.31;6100186;28;20942;-65
2023/08/10 08:37:18;;;;;;;5.83;1.23;;;;;;;18.54;66.85;101468.00;6100959;28;20031;-66
2023/08/10 08:40:13;;;;;;;3.93;0.90;;;;;;;18.72;65.48;101472.09;6100157;28;20276;-66
2023/08/10 08:43:10;;;;;;;3.80;1.03;;;;;;;19.31;65.13;101477.59;6100612;28;20523;-66
2023/08/10 08:46:06;;;;;;;4.07;1.10;;;;;;;19.67;62.41;101475.88;6108855;28;20086;-66
2023/08/10 08:49:02;;;;;;;5.53;1.20;;;;;;;19.65;59.71;101464.44;6100263;28;20032;-66
2023/08/10 08:51:57;;;;;;;7.35;1.15;;;;;;;19.96;57.55;101478.53;6100465;28;20492;-66
2023/08/10 08:54:53;;;;;;;4.35;1.20;;;;;;;19.80;57.98;101473.34;6098402;28;20122;-65
2023/08/10 08:57:49;;;;;;;2.47;1.17;;;;;;;19.83;59.55;101485.59;6099935;28;20039;-66
2023/08/10 09:00:49;;;;;;;5.55;1.50;;;;;;;20.36;57.02;101462.84;6099900;28;20029;-66
2023/08/10 09:03:45;;;;;;;6.15;1.13;;;;;;;20.70;57.17;101460.28;6099615;28;20032;-66
2023/08/10 09:06:40;;;;;;;3.88;0.98;;;;;;;19.98;56.06;101476.47;6103777;28;20053;-66
2023/08/10 09:09:36;;;;;;;4.60;1.00;;;;;;;19.64;58.19;101462.78;6099825;28;20029;-66
2023/08/10 09:12:34;;;;;;;5.25;1.40;;;;;;;19.69;56.00;101463.06;6099931;28;20263;-66
2023/08/10 09:15:29;;;;;;;6.63;1.10;;;;;;;19.99;54.79;101462.00;6099238;28;20025;-66
2023/08/10 09:18:30;;;;;;;3.80;1.03;;;;;;;20.68;55.12;101456.97;6099698;28;20043;-66
2023/08/10 09:21:30;;;;;;;4.85;1.17;;;;;;;21.08;54.13;101469.78;6099553;28;20021;-66
2023/08/10 09:24:28;;;;;;;4.15;1.00;;;;;;;20.83;54.03;101460.41;6099440;28;20032;-66
2023/08/10 09:27:27;;;;;;;3.20;1.33;;;;;;;20.08;56.46;101460.84;6111141;28;20032;-66
2023/08/10 09:30:22;;;;;;;2.17;1.13;;;;;;;19.43;57.18;101466.19;6099282;28;20051;-66
2023/08/10 09:33:33;;;;;;;7.87;1.37;;;;;;;18.86;58.27;101476.66;6098357;28;20460;-66
2023/08/10 09:36:29;;;;;;;1.90;1.00;;;;;;;18.77;59.02;101474.22;6099301;28;20036;-66
2023/08/10 09:39:29;;;;;;;4.28;1.00;;;;;;;19.33;57.87;101462.94;6099260;28;20030;-66
2023/08/10 09:42:24;;;;;;;7.55;1.10;;;;;;;20.20;52.87;101464.72;6099385;28;20028;-66
2023/08/10 09:45:19;;;;;;;3.23;1.00;;;;;;;21.22;50.64;101474.25;6104107;28;20032;-66
2023/08/10 09:48:14;;;;;;;6.90;1.10;;;;;;;22.06;48.52;101468.69;6099704;28;20025;-66
2023/08/10 09:51:10;;;;;;;5.50;1.23;;;;;;;22.40;47.49;101472.09;6098761;28;20076;-66
2023/08/10 09:54:06;;;;;;;3.03;1.20;;;;;;;21.79;48.19;101471.25;6098318;28;20302;-66
2023/08/10 09:57:02;;;;;;;6.75;1.15;;;;;;;20.84;52.26;101459.38;6092563;28;20056;-66
2023/08/10 09:59:57;;;;;;;5.18;1.40;;;;;;;20.25;54.92;101479.53;6098334;28;20211;-66
2023/08/10 10:02:53;;;;;;;3.03;1.15;;;;;;;19.78;55.80;101480.78;6098418;28;20021;-66
2023/08/10 10:05:49;;;;;;;4.22;1.23;;;;;;;19.24;57.62;101492.78;6097990;28;20028;-66
2023/08/10 10:08:51;;;;;;;4.15;0.90;;;;;;;19.11;57.83;101481.81;6097218;28;20039;-66
2023/08/10 10:11:47;;;;;;;3.33;1.23;;;;;;;19.92;55.50;101481.78;6098424;28;20025;-66
2023/08/10 10:14:45;;;;;;;3.80;1.00;;;;;;;20.53;54.34;101475.03;6096724;28;20104;-66
2023/08/10 10:17:41;;;;;;;2.75;1.00;;;;;;;21.15;52.73;101459.84;6110631;28;20025;-66
2023/08/10 10:20:42;;;;;;;2.60;1.00;;;;;;;21.77;48.88;101473.28;6098501;28;20033;-67
2023/08/10 10:23:40;;;;;;;2.53;1.02;;;;;;;22.57;47.92;101458.19;6113004;28;20040;-66
2023/08/10 10:26:37;;;;;;;3.30;1.30;;;;;;;23.24;45.99;101466.97;6098316;28;20033;-66
2023/08/10 10:29:48;;;;;;;3.95;1.20;;;;;;;23.63;45.07;101442.53;6096960;28;20028;-67
2023/08/10 10:32:46;;;;;;;3.83;1.30;;;;;;;23.33;43.39;101456.75;6098021;28;20075;-67
2023/08/10 10:36:04;;;;;;;3.25;1.10;;;;;;;22.01;47.17;101461.19;6096534;28;20033;-66
2023/08/10 10:39:07;;;;;;;;;;;;;;;21.02;49.91;101470.50;6098164;28;20036;-66
2023/08/10 10:42:03;;;;;;;5.35;1.00;;;;;;;20.77;50.76;101445.00;6098091;28;19908;-66
2023/08/10 10:45:14;;;;;;;5.60;1.17;;;;;;;20.65;53.15;101452.78;6097950;28;20029;-66
2023/08/10 10:48:13;;;;;;;5.20;1.20;;;;;;;21.54;52.55;101466.53;6101178;28;20025;-66
2023/08/10 10:51:08;;;;;;;2.13;1.10;;;;;;;21.88;48.91;101448.44;6098133;28;20443;-66
2023/08/10 10:54:04;;;;;;;3.30;0.93;;;;;;;22.10;47.61;101456.41;6097116;28;20025;-66
2023/08/10 10:57:00;;;;;;;2.15;0.98;;;;;;;22.72;46.03;101448.88;6097866;28;20063;-66
2023/08/10 10:59:55;;;;;;;5.20;0.95;;;;;;;23.11;45.52;101458.84;6097422;28;20457;-66
2023/08/10 11:02:51;;;;;;;4.07;1.00;;;;;;;23.45;44.17;101450.53;6097428;28;20071;-66
2023/08/10 11:05:46;;;;;;;2.15;0.95;;;;;;;23.75;44.47;101433.75;6096198;28;20040;-66
2023/08/10 11:08:42;;;;;;;5.88;1.05;;;;;;;22.93;46.05;101456.81;6098028;28;20025;-66
2023/08/10 11:11:37;;;;;;;3.93;1.10;;;;;;;21.41;50.01;101436.78;6097555;28;20025;-66
2023/08/10 11:14:32;;;;;;;3.97;1.13;;;;;;;21.83;50.57;101452.75;6096809;28;20103;-66
2023/08/10 11:17:28;;;;;;;3.57;1.00;;;;;;;21.52;49.35;101449.72;6097726;28;20041;-66
2023/08/10 11:20:24;;;;;;;4.78;1.10;;;;;;;20.93;52.12;101428.53;6097399;28;20318;-66
2023/08/10 11:23:19;;;;;;;7.13;1.20;;;;;;;20.88;50.82;101432.84;6096860;28;20025;-66
2023/08/10 11:26:16;;;;;;;4.07;1.20;;;;;;;21.44;50.27;101430.97;6096453;28;20107;-66
2023/08/10 11:29:12;;;;;;;3.17;1.30;;;;;;;21.84;49.17;101422.03;6097148;28;20372;-66
2023/08/10 11:32:07;;;;;;;2.58;1.00;;;;;;;22.14;48.41;101427.97;6097343;28;20121;-66
2023/08/10 11:35:03;;;;;;;3.50;1.20;;;;;;;22.63;48.00;101422.22;6096736;28;20468;-67
2023/08/10 11:37:58;;;;;;;3.63;1.10;;;;;;;22.79;45.68;101421.84;6097208;28;20047;-66
2023/08/10 11:40:57;;;;;;;3.63;1.30;;;;;;;23.21;43.10;101424.06;6097041;28;20372;-66
2023/08/10 11:43:52;;;;;;;3.58;1.05;;;;;;;23.36;42.28;101410.31;6096825;28;20025;-67
2023/08/10 11:46:49;;;;;;;4.43;1.03;;;;;;;23.53;42.64;101420.50;6101836;28;20036;-66
2023/08/10 11:49:44;;;;;;;4.95;1.48;;;;;;;22.82;45.11;101422.25;6096965;28;20021;-66
2023/08/10 11:52:40;;;;;;;2.70;1.10;;;;;;;22.46;44.78;101408.28;6095897;28;20028;-66
2023/08/10 11:55:40;;;;;;;2.33;0.95;;;;;;;22.78;43.79;101417.47;6098895;28;20032;-66
2023/08/10 11:58:36;;;;;;;4.05;0.90;;;;;;;22.69;43.64;101430.38;6101739;28;20031;-66
2023/08/10 12:01:44;;;;;;;5.57;1.00;;;;;;;22.87;41.58;101416.22;6101556;28;20472;-66
2023/08/10 12:04:40;;;;;;;4.50;1.45;;;;;;;22.76;43.11;101401.44;6100759;28;20031;-66
2023/08/10 12:07:36;;;;;;;2.90;0.75;;;;;;;22.52;40.43;101402.88;6113987;28;20025;-66
2023/08/10 12:10:36;;;;;;;3.40;0.90;;;;;;;22.90;42.08;101413.09;6101184;28;20087;-66
2023/08/10 12:13:32;;;;;;;3.85;1.13;;;;;;;23.34;42.29;101405.13;6100932;28;20274;-66
2023/08/10 12:16:27;;;;;;;3.63;1.05;;;;;;;23.59;40.00;101408.78;6112296;28;20136;-65
2023/08/10 12:19:23;;;;;;;1.83;1.00;;;;;;;23.70;40.65;101404.56;6105265;28;20488;-66
2023/08/10 12:22:18;;;;;;;2.77;0.90;;;;;;;23.84;41.08;101384.50;6101138;28;20032;-66
2023/08/10 12:25:13;;;;;;;2.50;1.00;;;;;;;22.85;42.34;101402.06;6099251;28;20025;-66
2023/08/10 12:28:09;;;;;;;5.03;1.43;;;;;;;23.14;42.46;101409.72;6108802;28;20112;-66
2023/08/10 12:31:05;;;;;;;4.40;1.13;;;;;;;22.93;41.90;101402.69;6100671;28;20039;-66
2023/08/10 12:34:01;;;;;;;4.90;1.20;;;;;;;23.23;40.93;101388.69;6100441;28;20028;-66
2023/08/10 12:36:56;;;;;;;4.13;0.97;;;;;;;23.57;42.18;101394.63;6101785;28;20021;-66
2023/08/10 12:39:51;;;;;;;1.67;0.80;;;;;;;23.83;41.26;101398.28;6100359;28;20467;-66
2023/08/10 12:42:47;;;;;;;3.40;1.13;;;;;;;23.47;41.31;101388.84;6100683;28;20082;-66
2023/08/10 12:45:42;;;;;;;4.35;1.20;;;;;;;23.55;41.99;101413.00;6102676;28;20056;-66
2023/08/10 12:48:38;;;;;;;3.73;1.10;;;;;;;23.64;40.41;101395.44;6100481;28;20475;-66
2023/08/10 12:51:33;;;;;;;3.58;1.10;;;;;;;24.11;39.48;101391.47;6100430;28;20021;-66
2023/08/10 12:54:29;;;;;;;8.03;1.23;;;;;;;23.73;38.94;101398.72;6098340;28;20091;-66
2023/08/10 12:57:24;;;;;;;4.20;1.03;;;;;;;23.70;40.41;101389.16;6100535;28;20077;-66
2023/08/10 13:00:20;;;;;;;3.15;1.15;;;;;;;23.79;41.63;101394.31;6099850;28;20037;-65
2023/08/10 13:03:16;;;;;;;2.38;1.15;;;;;;;23.61;41.43;101390.47;6099482;28;20052;-66
2023/08/10 13:06:11;;;;;;;4.70;1.07;;;;;;;23.42;39.39;101393.25;6107080;28;20030;-66
2023/08/10 13:09:08;;;;;;;2.80;1.00;;;;;;;23.47;41.84;101375.31;6102516;28;20037;-66
2023/08/10 13:12:03;;;;;;;4.20;1.08;;;;;;;23.50;40.47;101360.50;6100030;28;20049;-66
2023/08/10 13:14:59;;;;;;;2.78;1.00;;;;;;;23.87;42.61;101385.94;6099031;28;20027;-66
2023/08/10 13:17:54;;;;;;;1.52;0.80;;;;;;;23.81;41.07;101384.13;6099370;28;20052;-66
2023/08/10 13:20:49;;;;;;;3.23;1.00;;;;;;;23.80;41.06;101390.59;6099473;28;20376;-66
2023/08/10 13:23:45;;;;;;;2.37;1.00;;;;;;;23.34;40.49;101382.63;6098808;28;20267;-66
2023/08/10 13:26:40;;;;;;;2.70;0.90;;;;;;;23.65;42.35;101380.84;6106067;28;20364;-66
2023/08/10 13:29:35;;;;;;;5.93;1.00;;;;;;;23.65;41.45;101372.72;6099370;28;20064;-66
2023/08/10 13:32:31;;;;;;;3.27;1.07;;;;;;;23.68;40.79;101385.00;6099651;28;20036;-66
2023/08/10 13:35:26;;;;;;;5.37;1.20;;;;;;;23.86;40.44;101381.59;6098450;28;20028;-66